createdAt,value
2023-01-25T00:00:13.223Z,41.13
2023-01-25T00:02:20.509Z,37.50
2023-01-25T00:04:29.200Z,37.05
2023-01-25T00:06:36.639Z,34.55
2023-01-25T00:08:43.467Z,40.90
2023-01-25T00:10:57.563Z,37.45
2023-01-25T00:13:05.401Z,36.75
2023-01-25T00:15:13.543Z,38.72
2023-01-25T00:17:20.482Z,39.70
2023-01-25T00:19:29.289Z,33.75
2023-01-25T00:21:36.889Z,48.33
2023-01-25T00:23:44.173Z,53.03
2023-01-25T00:25:51.051Z,43.25
2023-01-25T00:27:58.385Z,44.35
2023-01-25T00:30:05.163Z,46.25
2023-01-25T00:32:39.774Z,47.20
2023-01-25T00:34:52.955Z,49.00
2023-01-25T00:37:01.210Z,46.03
2023-01-25T00:39:09.032Z,50.25
2023-01-25T00:41:15.829Z,49.50
2023-01-25T00:43:22.738Z,47.22
2023-01-25T00:45:29.630Z,45.00
2023-01-25T00:47:36.877Z,42.50
2023-01-25T00:49:45.835Z,44.53
2023-01-25T00:51:56.500Z,48.10
2023-01-25T00:54:03.372Z,46.15
2023-01-25T00:56:10.912Z,45.20
2023-01-25T00:58:18.146Z,41.65
2023-01-25T01:00:25.525Z,38.85
2023-01-25T01:02:34.710Z,37.03
2023-01-25T01:04:41.895Z,39.05
2023-01-25T01:06:49.136Z,37.15
2023-01-25T01:08:58.048Z,41.38
2023-01-25T01:11:05.740Z,37.10
2023-01-25T01:13:12.921Z,35.72
2023-01-25T01:15:21.546Z,40.97
2023-01-25T01:17:28.669Z,37.60
2023-01-25T01:19:35.593Z,38.95
2023-01-25T01:21:42.738Z,33.22
2023-01-25T01:23:49.933Z,33.47
2023-01-25T01:25:58.980Z,37.40
2023-01-25T01:28:05.962Z,34.30
2023-01-25T01:30:14.351Z,33.25
2023-01-25T01:32:21.693Z,31.73
2023-01-25T01:34:30.983Z,33.35
2023-01-25T01:36:38.065Z,31.20
2023-01-25T01:38:45.809Z,27.48
2023-01-25T01:40:53.095Z,28.60
2023-01-25T01:43:02.210Z,26.00
2023-01-25T01:45:39.476Z,27.75
2023-01-25T01:47:49.757Z,27.75
2023-01-25T01:50:02.214Z,27.80
2023-01-25T01:52:16.256Z,33.33
2023-01-25T01:54:28.455Z,26.98
2023-01-25T01:56:42.139Z,27.63
2023-01-25T01:58:52.906Z,28.13
2023-01-25T02:01:00.478Z,26.23
2023-01-25T02:03:07.712Z,24.90
2023-01-25T02:05:20.851Z,27.80
2023-01-25T02:07:34.862Z,31.65
2023-01-25T02:09:42.893Z,25.48
2023-01-25T02:11:50.693Z,30.27
2023-01-25T02:14:01.351Z,28.10
2023-01-25T02:16:09.682Z,29.45
2023-01-25T02:18:17.237Z,27.95
2023-01-25T02:20:32.402Z,23.15
2023-01-25T02:22:48.870Z,28.95
2023-01-25T02:25:05.233Z,23.50
2023-01-25T02:27:12.846Z,26.45
2023-01-25T02:29:20.560Z,26.67
2023-01-25T02:31:27.865Z,24.00
2023-01-25T02:33:34.882Z,26.45
2023-01-25T02:35:46.353Z,24.67
2023-01-25T02:37:55.985Z,26.17
2023-01-25T02:40:05.164Z,26.95
2023-01-25T02:42:11.922Z,27.50
2023-01-25T02:44:21.479Z,23.02
2023-01-25T02:46:31.540Z,25.23
2023-01-25T02:48:38.683Z,27.40
2023-01-25T02:50:46.244Z,23.75
2023-01-25T02:52:53.269Z,22.45
2023-01-25T02:55:00.247Z,30.10
2023-01-25T02:57:10.758Z,29.63
2023-01-25T02:59:22.705Z,29.52
2023-01-25T03:01:33.527Z,26.08
2023-01-25T03:03:42.285Z,26.35
2023-01-25T03:05:49.584Z,27.98
2023-01-25T03:07:56.647Z,26.52
2023-01-25T03:10:04.139Z,28.40
2023-01-25T03:12:14.443Z,27.27
2023-01-25T03:14:23.317Z,31.00
2023-01-25T03:16:30.990Z,31.73
2023-01-25T03:18:39.007Z,25.92
2023-01-25T03:20:46.123Z,33.10
2023-01-25T03:22:53.224Z,27.73
2023-01-25T03:25:00.455Z,27.35
2023-01-25T03:27:15.054Z,22.27
2023-01-25T03:29:34.627Z,27.77
2023-01-25T03:31:44.873Z,27.35
2023-01-25T03:33:53.800Z,25.40
2023-01-25T03:36:05.699Z,23.60
2023-01-25T03:38:13.131Z,22.05
2023-01-25T03:40:20.264Z,22.20
2023-01-25T03:42:29.789Z,23.13
2023-01-25T03:44:40.360Z,23.35
2023-01-25T03:46:47.803Z,22.92
2023-01-25T03:48:54.680Z,26.52
2023-01-25T03:51:03.039Z,23.50
2023-01-25T03:53:27.932Z,25.20
2023-01-25T03:55:38.643Z,28.40
2023-01-25T03:57:45.721Z,21.00
2023-01-25T03:59:54.848Z,24.70
2023-01-25T04:02:01.869Z,23.77
2023-01-25T04:04:09.620Z,23.05
2023-01-25T04:06:18.852Z,20.38
2023-01-25T04:08:26.366Z,18.73
2023-01-25T04:10:33.681Z,21.15
2023-01-25T04:12:40.795Z,18.98
2023-01-25T04:14:47.682Z,21.75
2023-01-25T04:17:06.331Z,19.40
2023-01-25T04:19:17.915Z,19.73
2023-01-25T04:21:25.251Z,18.02
2023-01-25T04:23:38.928Z,22.40
2023-01-25T04:25:46.272Z,18.50
2023-01-25T04:27:56.176Z,19.08
2023-01-25T04:30:03.885Z,19.05
2023-01-25T04:32:16.564Z,19.73
2023-01-25T04:34:25.286Z,17.45
2023-01-25T04:36:32.167Z,19.88
2023-01-25T04:38:39.446Z,18.38
2023-01-25T04:40:47.033Z,15.68
2023-01-25T04:42:54.272Z,20.08
2023-01-25T04:45:01.150Z,15.73
2023-01-25T04:47:08.514Z,20.13
2023-01-25T04:49:17.156Z,19.77
2023-01-25T04:51:24.387Z,20.10
2023-01-25T04:53:31.460Z,14.63
2023-01-25T04:55:41.309Z,17.50
2023-01-25T04:57:48.998Z,19.88
2023-01-25T04:59:56.433Z,19.17
2023-01-25T05:02:03.801Z,18.10
2023-01-25T05:04:11.871Z,19.65
2023-01-25T05:06:25.195Z,18.80
2023-01-25T05:08:32.632Z,17.65
2023-01-25T05:10:42.379Z,20.55
2023-01-25T05:13:07.056Z,16.65
2023-01-25T05:15:14.713Z,17.52
2023-01-25T05:17:21.994Z,23.60
2023-01-25T05:19:28.922Z,15.82
2023-01-25T05:22:01.958Z,17.67
2023-01-25T05:24:13.768Z,21.07
2023-01-25T05:26:41.360Z,19.30
2023-01-25T05:28:48.543Z,19.25
2023-01-25T05:31:13.095Z,21.33
2023-01-25T05:33:22.150Z,16.33
2023-01-25T05:35:29.333Z,18.17
2023-01-25T05:37:38.769Z,20.45
2023-01-25T05:39:48.459Z,18.25
2023-01-25T05:41:56.305Z,17.95
2023-01-25T05:44:03.333Z,20.00
2023-01-25T05:46:11.744Z,17.98
2023-01-25T05:48:18.773Z,22.13
2023-01-25T05:50:27.960Z,16.77
2023-01-25T05:52:48.752Z,16.95
2023-01-25T05:54:56.207Z,19.55
2023-01-25T05:57:04.088Z,19.40
2023-01-25T05:59:11.269Z,21.17
2023-01-25T06:01:18.133Z,22.27
2023-01-25T06:03:32.124Z,17.40
2023-01-25T06:05:39.827Z,21.50
2023-01-25T06:07:48.910Z,17.70
2023-01-25T06:09:57.420Z,18.13
2023-01-25T06:12:04.859Z,21.02
2023-01-25T06:14:11.727Z,18.48
2023-01-25T06:16:19.195Z,17.90
2023-01-25T06:18:42.793Z,18.13
2023-01-25T06:20:52.626Z,15.85
2023-01-25T06:23:07.641Z,18.58
2023-01-25T06:25:14.830Z,23.27
2023-01-25T06:27:21.751Z,19.92
2023-01-25T06:29:28.980Z,17.70
2023-01-25T06:31:35.954Z,21.45
2023-01-25T06:33:44.163Z,17.52
2023-01-25T06:35:51.039Z,19.88
2023-01-25T06:37:59.968Z,21.65
2023-01-25T06:40:09.447Z,20.73
2023-01-25T06:42:16.525Z,19.63
2023-01-25T06:44:23.551Z,19.92
2023-01-25T06:46:30.894Z,21.35
2023-01-25T06:48:38.171Z,24.05
2023-01-25T06:50:45.302Z,19.67
2023-01-25T06:52:56.376Z,19.60
2023-01-25T06:55:04.278Z,24.08
2023-01-25T06:57:13.152Z,19.40
2023-01-25T06:59:20.383Z,17.90
2023-01-25T07:01:31.258Z,19.75
2023-01-25T07:03:38.580Z,20.33
2023-01-25T07:05:45.402Z,17.58
2023-01-25T07:07:52.638Z,16.80
2023-01-25T07:10:00.094Z,22.52
2023-01-25T07:12:07.669Z,19.35
2023-01-25T07:14:16.228Z,17.90
2023-01-25T07:16:23.921Z,19.92
2023-01-25T07:18:32.645Z,21.13
2023-01-25T07:20:39.874Z,20.35
2023-01-25T07:22:46.695Z,15.90
2023-01-25T07:24:54.989Z,16.23
2023-01-25T07:27:01.708Z,17.13
2023-01-25T07:29:11.373Z,16.10
2023-01-25T07:31:21.083Z,16.83
2023-01-25T07:33:28.342Z,15.50
2023-01-25T07:35:35.672Z,19.38
2023-01-25T07:37:42.909Z,19.50
2023-01-25T07:39:51.623Z,15.27
2023-01-25T07:41:59.147Z,17.63
2023-01-25T07:44:13.112Z,20.17
2023-01-25T07:46:26.993Z,18.45
2023-01-25T07:48:34.640Z,16.35
2023-01-25T07:50:42.549Z,17.60
2023-01-25T07:52:49.393Z,15.55
2023-01-25T07:54:56.537Z,21.30
2023-01-25T07:57:03.413Z,20.02
2023-01-25T07:59:11.002Z,19.23
2023-01-25T08:01:19.826Z,17.98
2023-01-25T08:03:28.850Z,16.88
2023-01-25T08:05:35.723Z,17.08
2023-01-25T08:07:42.907Z,17.52
2023-01-25T08:09:49.780Z,22.73
2023-01-25T08:11:57.011Z,22.02
2023-01-25T08:14:04.706Z,20.65
2023-01-25T08:16:12.247Z,18.45
2023-01-25T08:18:19.066Z,20.92
2023-01-25T08:20:27.992Z,18.00
2023-01-25T08:22:34.814Z,19.05
2023-01-25T08:24:42.169Z,18.33
2023-01-25T08:26:52.054Z,17.60
2023-01-25T08:28:59.517Z,19.23
2023-01-25T08:31:11.192Z,16.08
2023-01-25T08:33:18.230Z,15.88
2023-01-25T08:35:27.101Z,18.55
2023-01-25T08:37:34.203Z,17.75
2023-01-25T08:39:41.117Z,22.95
2023-01-25T08:41:48.254Z,21.42
2023-01-25T08:43:56.517Z,19.45
2023-01-25T08:46:03.752Z,18.45
2023-01-25T08:48:10.515Z,19.50
2023-01-25T08:50:17.601Z,17.52
2023-01-25T08:52:26.348Z,19.23
2023-01-25T08:54:34.058Z,17.77
2023-01-25T08:56:41.528Z,19.15
2023-01-25T08:58:50.219Z,18.27
2023-01-25T09:00:57.736Z,16.58
2023-01-25T09:03:04.780Z,18.50
2023-01-25T09:05:12.477Z,17.70
2023-01-25T09:07:19.404Z,19.67
2023-01-25T09:09:28.475Z,17.98
2023-01-25T09:11:39.087Z,17.20
2023-01-25T09:13:46.115Z,19.65
2023-01-25T09:15:53.199Z,19.45
2023-01-25T09:18:01.457Z,20.42
2023-01-25T09:20:09.947Z,20.02
2023-01-25T09:22:17.605Z,17.67
2023-01-25T09:24:24.610Z,19.52
2023-01-25T09:26:33.610Z,19.75
2023-01-25T09:28:40.534Z,16.23
2023-01-25T09:30:59.190Z,19.80
2023-01-25T09:33:35.548Z,17.05
2023-01-25T09:35:42.782Z,17.45
2023-01-25T09:37:53.452Z,19.40
2023-01-25T09:40:00.882Z,20.52
2023-01-25T09:42:40.576Z,18.00
2023-01-25T09:45:11.465Z,17.33
2023-01-25T09:47:25.100Z,15.80
2023-01-25T09:50:03.931Z,16.88
2023-01-25T09:52:28.869Z,17.17
2023-01-25T09:54:46.945Z,19.58
2023-01-25T09:56:55.172Z,17.85
2023-01-25T09:59:07.723Z,16.30
2023-01-25T10:01:39.426Z,17.38
2023-01-25T10:03:53.320Z,17.55
2023-01-25T10:06:03.209Z,17.30
2023-01-25T10:08:15.767Z,17.63
2023-01-25T10:10:26.432Z,17.02
2023-01-25T10:12:39.346Z,17.00
2023-01-25T10:14:47.860Z,16.92
2023-01-25T10:17:06.408Z,17.50
2023-01-25T10:19:23.726Z,17.23
2023-01-25T10:21:34.396Z,16.35
2023-01-25T10:23:57.989Z,21.08
2023-01-25T10:26:15.108Z,18.52
2023-01-25T10:28:34.590Z,17.08
2023-01-25T10:30:51.985Z,16.92
2023-01-25T10:33:02.563Z,19.73
2023-01-25T10:35:34.380Z,19.10
2023-01-25T10:37:42.899Z,24.23
2023-01-25T10:39:57.499Z,20.45
2023-01-25T10:42:10.012Z,22.70
2023-01-25T10:44:26.770Z,19.38
2023-01-25T10:46:36.019Z,25.52
2023-01-25T10:48:43.333Z,23.58
2023-01-25T10:50:53.637Z,21.92
2023-01-25T10:53:02.197Z,25.00
2023-01-25T10:55:19.468Z,26.70
2023-01-25T10:57:27.772Z,23.02
2023-01-25T10:59:35.194Z,20.88
2023-01-25T11:01:43.887Z,20.08
2023-01-25T11:03:51.212Z,21.25
2023-01-25T11:06:00.390Z,20.77
2023-01-25T11:08:26.317Z,22.02
2023-01-25T11:10:35.851Z,22.20
2023-01-25T11:12:42.984Z,23.38
2023-01-25T11:14:52.473Z,20.55
2023-01-25T11:17:02.309Z,23.67
2023-01-25T11:19:31.717Z,21.63
2023-01-25T11:21:39.149Z,22.65
2023-01-25T11:23:47.790Z,24.60
2023-01-25T11:25:56.450Z,22.45
2023-01-25T11:28:20.429Z,21.98
2023-01-25T11:30:27.842Z,28.70
2023-01-25T11:32:36.918Z,27.90
2023-01-25T11:34:44.309Z,27.38
2023-01-25T11:37:14.527Z,30.90
2023-01-25T11:39:33.383Z,30.58
2023-01-25T11:41:52.186Z,27.15
2023-01-25T11:44:21.436Z,27.65
2023-01-25T11:46:46.535Z,23.95
2023-01-25T11:49:20.546Z,27.10
2023-01-25T11:51:35.152Z,27.85
2023-01-25T11:53:56.774Z,26.88
2023-01-25T11:56:14.297Z,31.77
2023-01-25T11:58:35.099Z,31.88
2023-01-25T12:01:00.353Z,29.63
2023-01-25T12:03:38.901Z,33.90
2023-01-25T12:06:03.296Z,32.90
2023-01-25T12:08:25.246Z,31.58
2023-01-25T12:12:48.063Z,40.78
2023-01-25T12:15:09.407Z,41.95
2023-01-25T12:17:31.747Z,38.92
2023-01-25T12:19:50.548Z,39.53
2023-01-25T12:22:17.085Z,40.60
2023-01-25T12:24:40.906Z,33.40
2023-01-25T12:26:57.819Z,36.10
2023-01-25T12:29:17.387Z,34.53
2023-01-25T12:31:28.112Z,30.67
2023-01-25T12:33:39.277Z,28.63
2023-01-25T12:35:50.076Z,29.42
2023-01-25T12:38:05.468Z,32.65
2023-01-25T12:40:18.699Z,32.58
2023-01-25T12:42:29.338Z,31.63
2023-01-25T12:44:40.020Z,28.50
2023-01-25T12:46:53.043Z,32.42
2023-01-25T12:49:06.003Z,30.95
2023-01-25T12:51:13.594Z,36.58
2023-01-25T12:53:26.714Z,32.58
2023-01-25T12:55:34.258Z,29.73
2023-01-25T12:57:47.119Z,31.27
2023-01-25T13:00:03.521Z,32.55
2023-01-25T13:02:28.412Z,28.02
2023-01-25T13:04:52.936Z,31.95
2023-01-25T13:07:05.664Z,33.35
2023-01-25T13:09:23.342Z,38.65
2023-01-25T13:11:36.514Z,34.35
2023-01-25T13:13:44.055Z,34.40
2023-01-25T13:15:51.391Z,32.13
2023-01-25T13:17:58.676Z,35.30
2023-01-25T13:20:06.588Z,31.88
2023-01-25T13:22:17.323Z,31.33
2023-01-25T13:24:28.466Z,37.05
2023-01-25T13:26:56.890Z,35.35
2023-01-25T13:29:03.969Z,31.02
2023-01-25T13:31:11.432Z,32.08
2023-01-25T13:33:37.328Z,33.67
2023-01-25T13:35:47.278Z,33.70
2023-01-25T13:38:06.197Z,33.22
2023-01-25T13:40:34.200Z,34.65
2023-01-25T13:42:43.379Z,35.55
2023-01-25T13:44:52.918Z,38.83
2023-01-25T13:47:01.634Z,35.47
2023-01-25T13:49:16.188Z,36.15
2023-01-25T13:51:23.865Z,38.60
2023-01-25T13:53:34.392Z,39.45
2023-01-25T13:55:47.885Z,44.72
2023-01-25T13:57:55.926Z,42.58
2023-01-25T14:00:10.589Z,43.80
2023-01-25T14:02:22.233Z,41.53
2023-01-25T14:04:30.523Z,46.38
2023-01-25T14:06:41.109Z,44.75
2023-01-25T14:08:48.521Z,47.13
2023-01-25T14:10:59.398Z,48.45
2023-01-25T14:13:06.418Z,46.88
2023-01-25T14:15:25.486Z,49.83
2023-01-25T14:17:32.352Z,53.13
2023-01-25T14:19:41.991Z,50.22
2023-01-25T14:21:49.117Z,49.40
2023-01-25T14:23:56.394Z,46.95
2023-01-25T14:26:05.057Z,49.10
2023-01-25T14:28:17.654Z,55.88
2023-01-25T14:30:26.953Z,54.83
2023-01-25T14:32:34.437Z,57.10
2023-01-25T14:34:41.130Z,56.67
2023-01-25T14:36:48.291Z,54.72
2023-01-25T14:38:55.132Z,55.05
2023-01-25T14:41:10.481Z,54.17
2023-01-25T14:43:18.249Z,54.78
2023-01-25T14:45:28.036Z,57.05
2023-01-25T14:47:35.732Z,55.42
2023-01-25T14:49:42.870Z,60.08
2023-01-25T14:51:52.966Z,56.38
2023-01-25T14:54:05.367Z,52.92
2023-01-25T14:56:36.212Z,58.00
2023-01-25T14:58:50.834Z,54.83
2023-01-25T15:01:06.821Z,64.15
2023-01-25T15:03:20.222Z,53.85
2023-01-25T15:05:28.715Z,57.22
2023-01-25T15:07:47.948Z,54.80
2023-01-25T15:10:06.986Z,56.95
2023-01-25T15:12:32.366Z,60.28
2023-01-25T15:14:52.081Z,57.88
2023-01-25T15:16:59.324Z,56.25
2023-01-25T15:19:06.456Z,51.60
2023-01-25T15:21:17.942Z,64.18
2023-01-25T15:23:29.357Z,55.97
2023-01-25T15:25:36.190Z,56.75
2023-01-25T15:27:44.908Z,55.47
2023-01-25T15:29:51.793Z,59.08
2023-01-25T15:31:59.734Z,58.00
2023-01-25T15:34:07.275Z,54.40
2023-01-25T15:36:15.544Z,58.70
2023-01-25T15:38:23.223Z,51.15
2023-01-25T15:40:30.409Z,56.90
2023-01-25T15:42:37.382Z,56.53
2023-01-25T15:44:46.304Z,60.63
2023-01-25T15:46:54.869Z,56.55
2023-01-25T15:49:02.256Z,54.20
2023-01-25T15:51:09.440Z,59.22
2023-01-25T15:53:19.436Z,57.15
2023-01-25T15:55:27.223Z,59.30
2023-01-25T15:57:37.336Z,54.22
2023-01-25T15:59:45.844Z,61.30
2023-01-25T16:01:53.182Z,60.13
2023-01-25T16:04:01.131Z,52.00
2023-01-25T16:06:10.509Z,56.05
2023-01-25T16:08:21.889Z,55.60
2023-01-25T16:10:29.275Z,56.28
2023-01-25T16:12:37.482Z,59.58
2023-01-25T16:14:46.414Z,53.83
2023-01-25T16:16:55.050Z,56.10
2023-01-25T16:19:02.358Z,56.05
2023-01-25T16:21:10.193Z,56.88
2023-01-25T16:23:18.457Z,57.75
2023-01-25T16:25:25.406Z,55.85
2023-01-25T16:27:36.816Z,62.03
2023-01-25T16:29:45.481Z,53.77
2023-01-25T16:31:52.991Z,62.13
2023-01-25T16:33:59.932Z,58.47
2023-01-25T16:36:15.309Z,60.67
2023-01-25T16:38:22.298Z,61.15
2023-01-25T16:40:32.756Z,60.80
2023-01-25T16:42:39.635Z,58.22
2023-01-25T16:44:49.953Z,56.22
2023-01-25T16:46:57.407Z,54.45
2023-01-25T16:49:07.882Z,51.50
2023-01-25T16:51:20.804Z,54.17
2023-01-25T16:53:27.824Z,60.10
2023-01-25T16:55:34.663Z,54.35
2023-01-25T16:57:41.827Z,55.45
2023-01-25T16:59:50.452Z,64.55
2023-01-25T17:01:57.573Z,64.72
2023-01-25T17:04:04.451Z,63.08
2023-01-25T17:06:18.329Z,55.65
2023-01-25T17:08:25.265Z,54.45
2023-01-25T17:10:35.726Z,58.55
2023-01-25T17:12:42.603Z,54.22
2023-01-25T17:14:51.521Z,58.15
2023-01-25T17:16:58.342Z,60.35
2023-01-25T17:19:07.123Z,53.92
2023-01-25T17:21:15.557Z,55.25
2023-01-25T17:23:23.563Z,59.25
2023-01-25T17:25:33.622Z,55.05
2023-01-25T17:27:40.701Z,59.30
2023-01-25T17:29:47.627Z,54.17
2023-01-25T17:31:56.748Z,52.58
2023-01-25T17:34:05.479Z,51.85
2023-01-25T17:36:15.191Z,54.10
2023-01-25T17:38:22.549Z,50.25
2023-01-25T17:40:29.826Z,52.80
2023-01-25T17:42:36.744Z,51.30
2023-01-25T17:44:43.631Z,48.72
2023-01-25T17:46:51.351Z,49.67
2023-01-25T17:49:00.708Z,51.22
2023-01-25T17:51:08.046Z,51.78
2023-01-25T17:53:15.225Z,52.30
2023-01-25T17:55:22.201Z,47.58
2023-01-25T17:57:29.588Z,49.95
2023-01-25T17:59:36.396Z,47.10
2023-01-25T18:01:45.287Z,50.47
2023-01-25T18:03:52.925Z,48.75
2023-01-25T18:06:09.937Z,47.22
2023-01-25T18:08:17.170Z,47.70
2023-01-25T18:10:24.711Z,50.97
2023-01-25T18:12:31.670Z,47.20
2023-01-25T18:14:39.331Z,43.13
2023-01-25T18:16:46.255Z,53.63
2023-01-25T18:18:54.677Z,51.17
2023-01-25T18:21:10.028Z,50.38
2023-01-25T18:23:17.169Z,47.60
2023-01-25T18:25:34.702Z,46.38
2023-01-25T18:27:41.874Z,46.30
2023-01-25T18:29:52.284Z,48.15
2023-01-25T18:31:59.504Z,49.40
2023-01-25T18:34:06.542Z,49.65
2023-01-25T18:36:18.235Z,52.03
2023-01-25T18:38:25.153Z,46.92
2023-01-25T18:40:32.489Z,51.25
2023-01-25T18:42:39.518Z,52.20
2023-01-25T18:44:49.274Z,57.17
2023-01-25T18:46:56.066Z,46.85
2023-01-25T18:49:03.217Z,45.30
2023-01-25T18:51:12.170Z,46.13
2023-01-25T18:53:21.095Z,47.95
2023-01-25T18:55:28.504Z,50.00
2023-01-25T18:57:35.779Z,53.53
2023-01-25T18:59:43.010Z,49.30
2023-01-25T19:01:50.563Z,50.35
2023-01-25T19:03:57.476Z,48.78
2023-01-25T19:06:05.171Z,53.40
2023-01-25T19:08:12.147Z,50.97
2023-01-25T19:10:21.378Z,50.55
2023-01-25T19:12:28.149Z,49.55
2023-01-25T19:14:35.390Z,51.88
2023-01-25T19:16:42.248Z,52.92
2023-01-25T19:18:50.969Z,51.28
2023-01-25T19:20:57.901Z,48.30
2023-01-25T19:23:05.135Z,50.55
2023-01-25T19:25:12.865Z,53.50
2023-01-25T19:27:24.716Z,46.00
2023-01-25T19:29:31.538Z,52.47
2023-01-25T19:31:39.496Z,49.90
2023-01-25T19:33:46.618Z,51.80
2023-01-25T19:36:00.868Z,48.47
2023-01-25T19:38:08.560Z,49.40
2023-01-25T19:40:16.775Z,46.47
2023-01-25T19:42:25.380Z,49.70
2023-01-25T19:44:32.463Z,53.95
2023-01-25T19:46:39.970Z,44.38
2023-01-25T19:48:49.960Z,50.15
2023-01-25T19:50:57.032Z,45.33
2023-01-25T19:53:04.469Z,54.63
2023-01-25T19:55:12.252Z,51.28
2023-01-25T19:57:19.542Z,51.05
2023-01-25T19:59:29.904Z,51.75
2023-01-25T20:01:38.011Z,45.33
2023-01-25T20:03:45.548Z,48.72
2023-01-25T20:06:01.569Z,49.20
2023-01-25T20:08:08.600Z,44.03
2023-01-25T20:10:16.460Z,51.05
2023-01-25T20:12:23.328Z,49.50
2023-01-25T20:14:32.357Z,54.45
2023-01-25T20:16:39.490Z,49.40
2023-01-25T20:18:48.157Z,45.58
2023-01-25T20:21:01.988Z,50.25
2023-01-25T20:23:09.117Z,50.00
2023-01-25T20:25:16.043Z,48.97
2023-01-25T20:27:24.080Z,49.40
2023-01-25T20:29:32.673Z,53.67
2023-01-25T20:31:42.103Z,52.42
2023-01-25T20:33:49.380Z,48.10
2023-01-25T20:35:59.261Z,49.75
2023-01-25T20:38:06.095Z,46.30
2023-01-25T20:40:14.508Z,52.22
2023-01-25T20:42:21.382Z,48.88
2023-01-25T20:44:29.933Z,47.65
2023-01-25T20:46:39.869Z,48.85
2023-01-25T20:48:47.329Z,48.55
2023-01-25T20:50:54.306Z,51.58
2023-01-25T20:53:01.436Z,49.30
2023-01-25T20:55:09.052Z,52.03
2023-01-25T20:57:16.462Z,56.47
2023-01-25T20:59:23.441Z,54.90
2023-01-25T21:01:32.261Z,48.60
2023-01-25T21:03:40.885Z,52.15
2023-01-25T21:05:53.747Z,55.67
2023-01-25T21:08:00.622Z,57.65
2023-01-25T21:10:08.393Z,53.13
2023-01-25T21:12:15.237Z,60.92
2023-01-25T21:14:22.436Z,55.63
2023-01-25T21:16:29.567Z,50.58
2023-01-25T21:18:38.521Z,49.17
2023-01-25T21:20:47.085Z,54.15
2023-01-25T21:22:54.455Z,52.00
2023-01-25T21:25:01.243Z,52.80
2023-01-25T21:27:09.114Z,56.65
2023-01-25T21:29:15.861Z,51.35
2023-01-25T21:31:24.361Z,52.88
2023-01-25T21:33:31.196Z,54.80
2023-01-25T21:35:38.325Z,53.88
2023-01-25T21:37:47.249Z,54.75
2023-01-25T21:39:54.467Z,56.45
2023-01-25T21:42:01.255Z,59.42
2023-01-25T21:44:25.007Z,56.65
2023-01-25T21:46:32.255Z,54.60
2023-01-25T21:48:55.620Z,58.95
2023-01-25T21:51:20.829Z,53.65
2023-01-25T21:53:29.440Z,50.63
2023-01-25T21:55:36.522Z,54.70
2023-01-25T21:57:48.100Z,59.58
2023-01-25T21:59:55.384Z,53.97
2023-01-25T22:02:02.256Z,54.45
2023-01-25T22:04:09.693Z,51.88
2023-01-25T22:06:16.655Z,55.92
2023-01-25T22:08:23.734Z,56.85
2023-01-25T22:10:32.297Z,55.50
2023-01-25T22:12:39.445Z,56.22
2023-01-25T22:14:46.372Z,56.10
2023-01-25T22:16:53.705Z,60.58
2023-01-25T22:19:01.042Z,52.25
2023-01-25T22:21:10.167Z,53.22
2023-01-25T22:23:16.874Z,58.92
2023-01-25T22:25:23.682Z,64.90
2023-01-25T22:27:48.429Z,55.65
2023-01-25T22:29:55.598Z,53.20
2023-01-25T22:32:03.186Z,53.95
2023-01-25T22:34:10.461Z,56.60
2023-01-25T22:36:18.978Z,55.92
2023-01-25T22:38:25.845Z,54.80
2023-01-25T22:40:33.129Z,56.80
2023-01-25T22:42:41.708Z,59.45
2023-01-25T22:44:48.776Z,60.72
2023-01-25T22:46:55.603Z,60.00
2023-01-25T22:49:02.938Z,63.00
2023-01-25T22:51:13.088Z,59.33
2023-01-25T22:53:20.213Z,65.47
2023-01-25T22:55:27.037Z,62.85
2023-01-25T22:57:34.267Z,65.15
2023-01-25T22:59:42.882Z,62.10
2023-01-25T23:01:50.016Z,67.68
2023-01-25T23:03:58.007Z,59.72
2023-01-25T23:06:05.759Z,63.30
2023-01-25T23:08:12.681Z,60.75
2023-01-25T23:10:20.326Z,61.88
2023-01-25T23:12:27.304Z,58.67
2023-01-25T23:14:50.869Z,63.53
2023-01-25T23:17:19.556Z,65.40
2023-01-25T23:19:27.592Z,66.30
2023-01-25T23:21:34.873Z,66.10
2023-01-25T23:23:42.192Z,65.80
2023-01-25T23:25:50.432Z,68.45
2023-01-25T23:27:57.615Z,65.03
2023-01-25T23:30:05.920Z,64.07
2023-01-25T23:32:14.747Z,65.88
2023-01-25T23:34:21.676Z,75.50
2023-01-25T23:36:30.027Z,72.38
2023-01-25T23:38:36.831Z,76.68
2023-01-25T23:40:44.067Z,73.43
2023-01-25T23:42:50.902Z,71.45
2023-01-25T23:44:57.778Z,72.82
2023-01-25T23:47:05.009Z,68.65
2023-01-25T23:49:13.676Z,68.57
2023-01-25T23:51:21.299Z,64.78
2023-01-25T23:53:28.857Z,69.75
2023-01-25T23:55:35.989Z,71.30
2023-01-25T23:57:42.863Z,74.38
2023-01-25T23:59:50.261Z,73.93
